sensor_id;sensor_type;location;lat;lon;timestamp;pressure;altitude;pressure_sealevel;temperature;humidity
23363;BME280;11853;48.080;11.960;2022-09-12T00:03:34;95047.41;;;12.95;100.00
23363;BME280;11853;48.080;11.960;2022-09-12T00:06:00;95036.25;;;12.91;100.00
23363;BME280;11853;48.080;11.960;2022-09-12T00:08:31;95034.38;;;12.83;100.00
23363;BME280;11853;48.080;11.960;2022-09-12T00:10:57;95030.94;;;12.91;100.00
23363;BME280;11853;48.080;11.960;2022-09-12T00:13:23;95034.06;;;12.87;100.00
23363;BME280;11853;48.080;11.960;2022-09-12T00:15:48;95026.25;;;12.85;100.00
23363;BME280;11853;48.080;11.960;2022-09-12T00:18:15;95024.56;;;12.84;100.00
23363;BME280;11853;48.080;11.960;2022-09-12T00:20:43;95021.41;;;12.80;100.00
23363;BME280;11853;48.080;11.960;2022-09-12T00:23:09;95015.25;;;12.80;100.00
23363;BME280;11853;48.080;11.960;2022-09-12T00:25:40;95021.56;;;12.79;100.00
23363;BME280;11853;48.080;11.960;2022-09-12T00:28:06;95016.41;;;12.77;100.00
23363;BME280;11853;48.080;11.960;2022-09-12T00:30:32;95023.72;;;12.75;100.00
23363;BME280;11853;48.080;11.960;2022-09-12T00:32:58;95016.06;;;12.72;100.00
23363;BME280;11853;48.080;11.960;2022-09-12T00:35:24;95017.69;;;12.73;100.00
23363;BME280;11853;48.080;11.960;2022-09-12T00:37:49;95015.03;;;12.73;100.00
23363;BME280;11853;48.080;11.960;2022-09-12T00:40:15;95014.41;;;12.71;100.00
23363;BME280;11853;48.080;11.960;2022-09-12T00:42:41;95017.88;;;12.72;100.00
23363;BME280;11853;48.080;11.960;2022-09-12T00:45:19;95011.06;;;12.69;100.00
23363;BME280;11853;48.080;11.960;2022-09-12T00:47:47;95011.06;;;12.69;100.00
23363;BME280;11853;48.080;11.960;2022-09-12T00:50:14;95000.41;;;12.69;100.00
23363;BME280;11853;48.080;11.960;2022-09-12T00:52:48;95006.88;;;12.67;100.00
23363;BME280;11853;48.080;11.960;2022-09-12T00:55:21;95001.56;;;12.67;100.00
23363;BME280;11853;48.080;11.960;2022-09-12T00:57:56;94998.75;;;12.68;100.00
23363;BME280;11853;48.080;11.960;2022-09-12T01:00:25;95007.06;;;12.65;100.00
23363;BME280;11853;48.080;11.960;2022-09-12T01:02:56;94993.22;;;12.61;100.00
23363;BME280;11853;48.080;11.960;2022-09-12T01:05:24;94989.91;;;12.59;100.00
23363;BME280;11853;48.080;11.960;2022-09-12T01:07:51;94991.88;;;12.57;100.00
23363;BME280;11853;48.080;11.960;2022-09-12T01:10:18;94992.22;;;12.54;100.00
23363;BME280;11853;48.080;11.960;2022-09-12T01:12:44;94988.41;;;12.57;100.00
23363;BME280;11853;48.080;11.960;2022-09-12T01:15:11;94980.56;;;12.55;100.00
23363;BME280;11853;48.080;11.960;2022-09-12T01:35:44;94974.88;;;12.42;100.00
23363;BME280;11853;48.080;11.960;2022-09-12T01:43:48;94967.69;;;12.34;100.00
23363;BME280;11853;48.080;11.960;2022-09-12T01:46:18;94970.03;;;12.37;100.00
23363;BME280;11853;48.080;11.960;2022-09-12T01:51:59;94964.03;;;12.35;100.00
23363;BME280;11853;48.080;11.960;2022-09-12T01:54:39;94962.19;;;12.36;100.00
23363;BME280;11853;48.080;11.960;2022-09-12T01:57:21;94948.56;;;12.31;100.00
23363;BME280;11853;48.080;11.960;2022-09-12T01:59:53;94958.19;;;12.32;100.00
23363;BME280;11853;48.080;11.960;2022-09-12T02:02:27;94959.72;;;12.34;100.00
23363;BME280;11853;48.080;11.960;2022-09-12T02:05:01;94955.03;;;12.28;100.00
23363;BME280;11853;48.080;11.960;2022-09-12T02:07:36;94954.34;;;12.26;100.00
23363;BME280;11853;48.080;11.960;2022-09-12T02:10:18;94953.66;;;12.24;100.00
23363;BME280;11853;48.080;11.960;2022-09-12T02:12:51;94953.66;;;12.24;100.00
23363;BME280;11853;48.080;11.960;2022-09-12T02:15:24;94955.50;;;12.24;100.00
23363;BME280;11853;48.080;11.960;2022-09-12T02:17:54;94943.22;;;12.23;100.00
23363;BME280;11853;48.080;11.960;2022-09-12T02:20:25;94949.50;;;12.22;100.00
23363;BME280;11853;48.080;11.960;2022-09-12T02:22:55;94947.03;;;12.20;100.00
23363;BME280;11853;48.080;11.960;2022-09-12T02:25:23;94942.03;;;12.17;100.00
23363;BME280;11853;48.080;11.960;2022-09-12T02:27:55;94941.19;;;12.16;100.00
23363;BME280;11853;48.080;11.960;2022-09-12T02:30:22;94935.00;;;12.16;100.00
23363;BME280;11853;48.080;11.960;2022-09-12T02:38:42;94926.75;;;12.19;100.00
23363;BME280;11853;48.080;11.960;2022-09-12T02:41:11;94931.06;;;12.20;100.00
23363;BME280;11853;48.080;11.960;2022-09-12T02:43:37;94926.06;;;12.17;100.00
23363;BME280;11853;48.080;11.960;2022-09-12T02:46:06;94928.03;;;12.15;100.00
23363;BME280;11853;48.080;11.960;2022-09-12T02:48:36;94923.88;;;12.12;100.00
23363;BME280;11853;48.080;11.960;2022-09-12T02:51:04;94921.38;;;12.11;100.00
23363;BME280;11853;48.080;11.960;2022-09-12T02:53:30;94935.00;;;12.08;100.00
23363;BME280;11853;48.080;11.960;2022-09-12T02:55:56;94930.97;;;12.04;100.00
23363;BME280;11853;48.080;11.960;2022-09-12T02:58:25;94921.19;;;12.04;100.00
23363;BME280;11853;48.080;11.960;2022-09-12T03:01:28;94924.34;;;12.00;100.00
23363;BME280;11853;48.080;11.960;2022-09-12T03:04:42;94919.00;;;12.00;100.00
23363;BME280;11853;48.080;11.960;2022-09-12T03:18:18;94921.34;;;12.03;100.00
23363;BME280;11853;48.080;11.960;2022-09-12T03:26:15;94924.16;;;12.01;100.00
23363;BME280;11853;48.080;11.960;2022-09-12T03:28:46;94916.50;;;11.98;100.00
23363;BME280;11853;48.080;11.960;2022-09-12T03:31:15;94911.81;;;11.92;100.00
23363;BME280;11853;48.080;11.960;2022-09-12T03:33:42;94923.97;;;11.94;100.00
23363;BME280;11853;48.080;11.960;2022-09-12T03:36:17;94920.63;;;11.92;100.00
23363;BME280;11853;48.080;11.960;2022-09-12T03:38:44;94916.31;;;11.91;100.00
23363;BME280;11853;48.080;11.960;2022-09-12T03:41:10;94909.34;;;11.90;100.00
23363;BME280;11853;48.080;11.960;2022-09-12T03:43:35;94913.81;;;11.90;100.00
23363;BME280;11853;48.080;11.960;2022-09-12T03:46:01;94918.28;;;11.89;100.00
23363;BME280;11853;48.080;11.960;2022-09-12T03:48:26;94926.13;;;11.91;100.00
23363;BME280;11853;48.080;11.960;2022-09-12T03:50:52;94912.97;;;11.89;100.00
23363;BME280;11853;48.080;11.960;2022-09-12T03:53:18;94918.28;;;11.89;100.00
23363;BME280;11853;48.080;11.960;2022-09-12T03:55:43;94920.94;;;11.89;100.00
23363;BME280;11853;48.080;11.960;2022-09-12T03:58:09;94921.94;;;11.88;100.00
23363;BME280;11853;48.080;11.960;2022-09-12T04:00:34;94921.94;;;11.88;100.00
23363;BME280;11853;48.080;11.960;2022-09-12T04:03:00;94923.94;;;11.86;100.00
23363;BME280;11853;48.080;11.960;2022-09-12T04:05:25;94920.03;;;11.81;100.00
23363;BME280;11853;48.080;11.960;2022-09-12T04:07:51;94919.22;;;11.80;100.00
23363;BME280;11853;48.080;11.960;2022-09-12T04:10:17;94918.38;;;11.80;100.00
23363;BME280;11853;48.080;11.960;2022-09-12T04:12:42;94922.03;;;11.79;100.00
23363;BME280;11853;48.080;11.960;2022-09-12T04:15:09;94917.56;;;11.79;100.00
23363;BME280;11853;48.080;11.960;2022-09-12T04:17:34;94916.88;;;11.77;100.00
23363;BME280;11853;48.080;11.960;2022-09-12T04:20:00;94911.72;;;11.76;100.00
23363;BME280;11853;48.080;11.960;2022-09-12T04:22:26;94916.19;;;11.75;100.00
23363;BME280;11853;48.080;11.960;2022-09-12T04:24:52;94913.84;;;11.72;100.00
23363;BME280;11853;48.080;11.960;2022-09-12T04:27:18;94920.16;;;11.71;100.00
23363;BME280;11853;48.080;11.960;2022-09-12T04:29:43;94913.16;;;11.70;100.00
23363;BME280;11853;48.080;11.960;2022-09-12T04:32:09;94917.84;;;11.68;100.00
23363;BME280;11853;48.080;11.960;2022-09-12T04:34:34;94915.19;;;11.68;100.00
23363;BME280;11853;48.080;11.960;2022-09-12T04:37:00;94921.47;;;11.67;100.00
23363;BME280;11853;48.080;11.960;2022-09-12T04:39:25;94926.94;;;11.65;100.00
23363;BME280;11853;48.080;11.960;2022-09-12T04:41:51;94918.81;;;11.67;100.00
23363;BME280;11853;48.080;11.960;2022-09-12T04:44:17;94913.16;;;11.70;100.00
23363;BME280;11853;48.080;11.960;2022-09-12T04:46:44;94917.97;;;11.66;100.00
23363;BME280;11853;48.080;11.960;2022-09-12T04:49:12;94918.16;;;11.65;100.00
23363;BME280;11853;48.080;11.960;2022-09-12T04:51:40;94918.16;;;11.65;100.00
23363;BME280;11853;48.080;11.960;2022-09-12T04:54:17;94920.50;;;11.68;100.00
23363;BME280;11853;48.080;11.960;2022-09-12T04:56:45;94919.84;;;11.74;100.00
23363;BME280;11853;48.080;11.960;2022-09-12T04:59:12;94916.97;;;11.85;100.00
23363;BME280;11853;48.080;11.960;2022-09-12T05:01:38;94916.34;;;12.00;100.00
23363;BME280;11853;48.080;11.960;2022-09-12T05:04:04;94913.78;;;12.24;100.00
23363;BME280;11853;48.080;11.960;2022-09-12T05:06:32;94915.84;;;12.47;100.00
23363;BME280;11853;48.080;11.960;2022-09-12T05:08:59;94911.88;;;12.67;100.00
23363;BME280;11853;48.080;11.960;2022-09-12T05:11:31;94920.91;;;12.91;100.00
23363;BME280;11853;48.080;11.960;2022-09-12T05:13:58;94922.25;;;13.19;100.00
23363;BME280;11853;48.080;11.960;2022-09-12T05:16:25;94920.75;;;13.41;100.00
23363;BME280;11853;48.080;11.960;2022-09-12T05:18:50;94921.88;;;13.71;100.00
23363;BME280;11853;48.080;11.960;2022-09-12T05:21:19;94933.63;;;14.02;100.00
23363;BME280;11853;48.080;11.960;2022-09-12T05:23:46;94926.50;;;14.33;100.00
23363;BME280;11853;48.080;11.960;2022-09-12T05:26:15;94934.38;;;14.66;100.00
23363;BME280;11853;48.080;11.960;2022-09-12T05:28:41;94930.66;;;14.98;98.16
23363;BME280;11853;48.080;11.960;2022-09-12T05:31:11;94941.34;;;15.21;97.20
23363;BME280;11853;48.080;11.960;2022-09-12T05:33:39;94936.66;;;15.46;95.55
23363;BME280;11853;48.080;11.960;2022-09-12T05:36:07;94939.00;;;15.64;94.88
23363;BME280;11853;48.080;11.960;2022-09-12T05:38:34;94938.13;;;15.87;94.16
23363;BME280;11853;48.080;11.960;2022-09-12T05:41:08;94938.78;;;16.04;93.98
23363;BME280;11853;48.080;11.960;2022-09-12T05:43:35;94944.59;;;16.22;93.29
23363;BME280;11853;48.080;11.960;2022-09-12T05:46:08;94948.41;;;16.42;92.78
23363;BME280;11853;48.080;11.960;2022-09-12T05:48:39;94932.75;;;16.61;91.77
23363;BME280;11853;48.080;11.960;2022-09-12T05:51:08;94938.81;;;16.84;90.88
23363;BME280;11853;48.080;11.960;2022-09-12T05:53:36;94948.38;;;17.08;90.09
23363;BME280;11853;48.080;11.960;2022-09-12T05:56:06;94934.97;;;17.30;86.72
23363;BME280;11853;48.080;11.960;2022-09-12T05:58:37;94951.78;;;17.45;87.57
23363;BME280;11853;48.080;11.960;2022-09-12T06:01:06;94941.31;;;17.50;87.39
23363;BME280;11853;48.080;11.960;2022-09-12T06:03:39;94954.09;;;17.70;86.18
23363;BME280;11853;48.080;11.960;2022-09-12T06:06:06;94945.16;;;17.84;86.12
23363;BME280;11853;48.080;11.960;2022-09-12T06:08:33;94947.53;;;18.00;85.25
23363;BME280;11853;48.080;11.960;2022-09-12T06:11:03;94945.78;;;18.14;85.64
23363;BME280;11853;48.080;11.960;2022-09-12T06:13:34;94955.38;;;18.37;83.49
23363;BME280;11853;48.080;11.960;2022-09-12T06:16:31;94956.53;;;18.14;82.38
23363;BME280;11853;48.080;11.960;2022-09-12T06:19:00;94946.47;;;18.30;83.07
23363;BME280;11853;48.080;11.960;2022-09-12T06:21:26;94945.13;;;18.47;82.30
23363;BME280;11853;48.080;11.960;2022-09-12T06:23:56;94950.41;;;18.68;82.40
23363;BME280;11853;48.080;11.960;2022-09-12T06:26:25;94947.19;;;18.93;81.01
23363;BME280;11853;48.080;11.960;2022-09-12T06:28:53;94955.75;;;19.10;80.61
23363;BME280;11853;48.080;11.960;2022-09-12T06:31:21;94942.97;;;19.39;77.25
23363;BME280;11853;48.080;11.960;2022-09-12T06:33:48;94934.91;;;19.58;74.92
23363;BME280;11853;48.080;11.960;2022-09-12T06:36:20;94933.88;;;19.59;76.15
23363;BME280;11853;48.080;11.960;2022-09-12T06:38:47;94942.22;;;19.78;75.81
23363;BME280;11853;48.080;11.960;2022-09-12T06:41:14;94941.78;;;19.68;72.65
23363;BME280;11853;48.080;11.960;2022-09-12T06:43:40;94939.66;;;19.30;75.07
23363;BME280;11853;48.080;11.960;2022-09-12T06:46:08;94938.44;;;19.52;74.47
23363;BME280;11853;48.080;11.960;2022-09-12T06:48:34;94946.34;;;19.74;74.17
23363;BME280;11853;48.080;11.960;2022-09-12T06:51:05;94938.25;;;19.74;73.51
23363;BME280;11853;48.080;11.960;2022-09-12T06:53:34;94942.59;;;19.82;74.98
23363;BME280;11853;48.080;11.960;2022-09-12T06:56:06;94936.81;;;19.78;72.31
23363;BME280;11853;48.080;11.960;2022-09-12T06:58:33;94938.47;;;19.79;73.10
23363;BME280;11853;48.080;11.960;2022-09-12T07:01:06;94942.81;;;19.93;74.40
23363;BME280;11853;48.080;11.960;2022-09-12T07:03:33;94936.34;;;20.28;71.81
23363;BME280;11853;48.080;11.960;2022-09-12T07:06:10;94945.41;;;20.40;72.79
23363;BME280;11853;48.080;11.960;2022-09-12T07:08:38;94947.50;;;20.31;73.36
23363;BME280;11853;48.080;11.960;2022-09-12T07:11:09;94946.50;;;20.19;72.29
23363;BME280;11853;48.080;11.960;2022-09-12T07:13:35;94946.25;;;20.47;74.13
23363;BME280;11853;48.080;11.960;2022-09-12T07:16:02;94950.97;;;20.52;70.73
23363;BME280;11853;48.080;11.960;2022-09-12T07:18:28;94944.97;;;20.69;72.66
23363;BME280;11853;48.080;11.960;2022-09-12T07:20:54;94944.94;;;20.76;71.89
23363;BME280;11853;48.080;11.960;2022-09-12T07:23:20;94954.88;;;20.82;71.49
23363;BME280;11853;48.080;11.960;2022-09-12T07:25:52;94945.97;;;20.75;71.98
23363;BME280;11853;48.080;11.960;2022-09-12T07:28:19;94946.56;;;20.84;72.11
23363;BME280;11853;48.080;11.960;2022-09-12T07:30:44;94945.47;;;20.91;71.93
23363;BME280;11853;48.080;11.960;2022-09-12T07:33:10;94948.38;;;20.97;71.36
23363;BME280;11853;48.080;11.960;2022-09-12T07:35:36;94949.38;;;21.02;71.42
23363;BME280;11853;48.080;11.960;2022-09-12T07:38:01;94949.38;;;21.09;70.82
23363;BME280;11853;48.080;11.960;2022-09-12T07:40:27;94951.44;;;21.07;71.63
23363;BME280;11853;48.080;11.960;2022-09-12T07:42:53;94962.28;;;20.93;70.95
23363;BME280;11853;48.080;11.960;2022-09-12T07:45:19;94960.66;;;20.92;71.31
23363;BME280;11853;48.080;11.960;2022-09-12T07:47:45;94961.16;;;20.69;69.90
23363;BME280;11853;48.080;11.960;2022-09-12T07:50:10;94960.16;;;20.44;71.77
23363;BME280;11853;48.080;11.960;2022-09-12T07:52:36;94963.25;;;20.34;71.90
23363;BME280;11853;48.080;11.960;2022-09-12T07:55:02;94963.69;;;20.38;72.98
23363;BME280;11853;48.080;11.960;2022-09-12T07:57:28;94963.09;;;20.16;73.40
23363;BME280;11853;48.080;11.960;2022-09-12T07:59:54;94967.22;;;20.25;76.11
23363;BME280;11853;48.080;11.960;2022-09-12T08:02:20;94961.38;;;20.48;75.16
23363;BME280;11853;48.080;11.960;2022-09-12T08:04:46;94965.31;;;20.52;74.06
23363;BME280;11853;48.080;11.960;2022-09-12T08:07:13;94970.13;;;20.30;71.31
23363;BME280;11853;48.080;11.960;2022-09-12T08:09:39;94968.22;;;20.51;72.21
23363;BME280;11853;48.080;11.960;2022-09-12T08:12:05;94960.31;;;20.62;72.52
23363;BME280;11853;48.080;11.960;2022-09-12T08:14:30;94957.41;;;20.70;73.32
23363;BME280;11853;48.080;11.960;2022-09-12T08:16:56;94964.50;;;20.58;71.91
23363;BME280;11853;48.080;11.960;2022-09-12T08:19:22;94968.44;;;20.42;72.69
23363;BME280;11853;48.080;11.960;2022-09-12T08:21:48;94967.16;;;20.52;73.51
23363;BME280;11853;48.080;11.960;2022-09-12T08:24:13;94971.78;;;20.38;70.73
23363;BME280;11853;48.080;11.960;2022-09-12T08:26:40;94974.84;;;20.48;73.57
23363;BME280;11853;48.080;11.960;2022-09-12T08:29:05;94971.13;;;20.56;73.11
23363;BME280;11853;48.080;11.960;2022-09-12T08:31:31;94967.00;;;20.53;73.23
23363;BME280;11853;48.080;11.960;2022-09-12T08:34:04;94972.31;;;20.73;72.42
23363;BME280;11853;48.080;11.960;2022-09-12T08:36:31;94973.53;;;20.77;75.09
23363;BME280;11853;48.080;11.960;2022-09-12T08:39:00;94956.06;;;20.93;77.64
23363;BME280;11853;48.080;11.960;2022-09-12T08:41:37;94967.97;;;21.17;76.28
23363;BME280;11853;48.080;11.960;2022-09-12T08:44:13;94975.38;;;21.42;76.96
23363;BME280;11853;48.080;11.960;2022-09-12T08:47:13;94965.34;;;21.49;73.59
23363;BME280;11853;48.080;11.960;2022-09-12T08:50:02;94967.88;;;21.44;72.90
23363;BME280;11853;48.080;11.960;2022-09-12T08:53:01;94971.25;;;21.26;73.52
23363;BME280;11853;48.080;11.960;2022-09-12T08:55:54;94968.75;;;21.38;75.05
23363;BME280;11853;48.080;11.960;2022-09-12T08:58:22;94975.72;;;21.52;74.62
23363;BME280;11853;48.080;11.960;2022-09-12T09:12:20;94964.75;;;21.72;70.79
23363;BME280;11853;48.080;11.960;2022-09-12T09:18:03;94965.25;;;21.62;73.78
23363;BME280;11853;48.080;11.960;2022-09-12T09:21:00;94964.31;;;21.50;70.13
23363;BME280;11853;48.080;11.960;2022-09-12T09:23:35;94962.81;;;21.54;72.34
23363;BME280;11853;48.080;11.960;2022-09-12T09:26:09;94965.63;;;21.72;70.89
23363;BME280;11853;48.080;11.960;2022-09-12T09:28:50;94956.41;;;21.80;72.51
23363;BME280;11853;48.080;11.960;2022-09-12T09:31:23;94947.28;;;21.74;70.95
23363;BME280;11853;48.080;11.960;2022-09-12T09:33:51;94954.63;;;21.67;71.60
23363;BME280;11853;48.080;11.960;2022-09-12T09:36:21;94949.72;;;21.82;74.30
23363;BME280;11853;48.080;11.960;2022-09-12T09:39:04;94953.50;;;21.81;72.63
23363;BME280;11853;48.080;11.960;2022-09-12T09:44:28;94948.25;;;21.87;75.85
23363;BME280;11853;48.080;11.960;2022-09-12T09:46:57;94943.00;;;21.92;76.95
23363;BME280;11853;48.080;11.960;2022-09-12T09:49:26;94940.84;;;22.00;77.18
23363;BME280;11853;48.080;11.960;2022-09-12T09:51:53;94943.94;;;22.04;74.72
23363;BME280;11853;48.080;11.960;2022-09-12T09:56:50;94942.63;;;21.88;72.97
23363;BME280;11853;48.080;11.960;2022-09-12T09:59:29;94936.06;;;21.77;75.19
23363;BME280;11853;48.080;11.960;2022-09-12T10:02:01;94942.69;;;21.81;77.15
23363;BME280;11853;48.080;11.960;2022-09-12T10:04:38;94938.94;;;21.82;76.98
23363;BME280;11853;48.080;11.960;2022-09-12T10:07:04;94935.34;;;21.89;72.95
23363;BME280;11853;48.080;11.960;2022-09-12T10:09:32;94942.34;;;21.71;72.53
23363;BME280;11853;48.080;11.960;2022-09-12T10:12:00;94935.56;;;21.62;73.76
23363;BME280;11853;48.080;11.960;2022-09-12T10:14:40;94930.84;;;21.51;70.14
23363;BME280;11853;48.080;11.960;2022-09-12T10:17:29;94931.72;;;21.45;72.08
23363;BME280;11853;48.080;11.960;2022-09-12T10:19:56;94933.38;;;21.46;73.85
23363;BME280;11853;48.080;11.960;2022-09-12T10:22:25;94926.50;;;21.50;74.27
23363;BME280;11853;48.080;11.960;2022-09-12T10:24:59;94928.94;;;21.58;75.06
23363;BME280;11853;48.080;11.960;2022-09-12T10:27:28;94930.78;;;21.64;69.75
23363;BME280;11853;48.080;11.960;2022-09-12T10:30:02;94930.16;;;21.62;69.28
23363;BME280;11853;48.080;11.960;2022-09-12T10:32:33;94930.22;;;21.55;66.78
23363;BME280;11853;48.080;11.960;2022-09-12T10:35:05;94928.03;;;21.39;68.04
23363;BME280;11853;48.080;11.960;2022-09-12T10:37:37;94923.84;;;21.43;66.56
23363;BME280;11853;48.080;11.960;2022-09-12T10:40:21;94924.50;;;21.39;67.77
23363;BME280;11853;48.080;11.960;2022-09-12T10:42:55;94917.63;;;21.36;67.04
23363;BME280;11853;48.080;11.960;2022-09-12T10:45:22;94918.50;;;21.36;67.72
23363;BME280;11853;48.080;11.960;2022-09-12T10:47:50;94909.75;;;21.34;66.84
23363;BME280;11853;48.080;11.960;2022-09-12T10:52:54;94923.19;;;21.48;67.98
23363;BME280;11853;48.080;11.960;2022-09-12T10:55:37;94912.78;;;21.51;68.13
23363;BME280;11853;48.080;11.960;2022-09-12T10:58:28;94915.28;;;21.53;67.18
23363;BME280;11853;48.080;11.960;2022-09-12T11:01:08;94903.91;;;21.44;65.67
23363;BME280;11853;48.080;11.960;2022-09-12T11:07:01;94909.75;;;21.34;69.97
23363;BME280;11853;48.080;11.960;2022-09-12T11:12:26;94913.50;;;21.33;65.08
23363;BME280;11853;48.080;11.960;2022-09-12T11:15:07;94906.44;;;21.39;67.43
23363;BME280;11853;48.080;11.960;2022-09-12T11:17:48;94903.78;;;21.57;66.92
23363;BME280;11853;48.080;11.960;2022-09-12T11:24:06;94910.88;;;21.58;63.09
23363;BME280;11853;48.080;11.960;2022-09-12T11:29:28;94897.03;;;21.48;62.59
23363;BME280;11853;48.080;11.960;2022-09-12T11:35:05;94906.28;;;21.59;66.01
23363;BME280;11853;48.080;11.960;2022-09-12T11:38:02;94904.22;;;21.54;61.93
23363;BME280;11853;48.080;11.960;2022-09-12T11:40:52;94898.91;;;21.48;62.53
23363;BME280;11853;48.080;11.960;2022-09-12T11:46:16;94895.63;;;21.39;63.69
23363;BME280;11853;48.080;11.960;2022-09-12T11:52:03;94888.91;;;21.48;65.03
23363;BME280;11853;48.080;11.960;2022-09-12T12:05:44;94882.44;;;21.24;64.62
23363;BME280;11853;48.080;11.960;2022-09-12T12:08:14;94885.31;;;21.29;67.11
23363;BME280;11853;48.080;11.960;2022-09-12T12:10:52;94884.44;;;21.35;68.37
23363;BME280;11853;48.080;11.960;2022-09-12T12:16:13;94891.41;;;21.50;68.12
23363;BME280;11853;48.080;11.960;2022-09-12T12:18:41;94884.19;;;21.44;64.32
23363;BME280;11853;48.080;11.960;2022-09-12T12:29:03;94871.94;;;21.34;61.31
23363;BME280;11853;48.080;11.960;2022-09-12T12:31:30;94876.75;;;21.32;62.64
23363;BME280;11853;48.080;11.960;2022-09-12T12:34:03;94863.72;;;21.29;61.53
23363;BME280;11853;48.080;11.960;2022-09-12T12:36:40;94865.97;;;21.32;63.37
23363;BME280;11853;48.080;11.960;2022-09-12T12:41:57;94853.78;;;21.23;59.26
23363;BME280;11853;48.080;11.960;2022-09-12T12:47:20;94861.28;;;21.21;60.63
23363;BME280;11853;48.080;11.960;2022-09-12T12:49:59;94857.75;;;21.21;61.25
23363;BME280;11853;48.080;11.960;2022-09-12T12:52:49;94853.19;;;21.21;62.96
23363;BME280;11853;48.080;11.960;2022-09-12T12:55:36;94856.88;;;21.27;61.53
23363;BME280;11853;48.080;11.960;2022-09-12T12:58:21;94847.34;;;21.24;62.45
23363;BME280;11853;48.080;11.960;2022-09-12T13:01:09;94839.84;;;21.26;64.81
23363;BME280;11853;48.080;11.960;2022-09-12T13:03:39;94843.56;;;21.32;61.80
23363;BME280;11853;48.080;11.960;2022-09-12T13:06:08;94849.97;;;21.38;62.08
23363;BME280;11853;48.080;11.960;2022-09-12T13:08:57;94840.63;;;21.33;62.27
23363;BME280;11853;48.080;11.960;2022-09-12T13:11:31;94844.63;;;21.24;63.04
23363;BME280;11853;48.080;11.960;2022-09-12T13:14:02;94833.84;;;21.24;64.34
23363;BME280;11853;48.080;11.960;2022-09-12T13:16:36;94833.84;;;21.24;65.15
23363;BME280;11853;48.080;11.960;2022-09-12T13:19:10;94842.31;;;21.28;64.79
23363;BME280;11853;48.080;11.960;2022-09-12T13:21:37;94843.31;;;21.33;63.64
23363;BME280;11853;48.080;11.960;2022-09-12T13:24:14;94830.88;;;21.32;61.73
23363;BME280;11853;48.080;11.960;2022-09-12T13:26:42;94830.88;;;21.32;61.18
23363;BME280;11853;48.080;11.960;2022-09-12T13:29:17;94830.09;;;21.25;61.36
23363;BME280;11853;48.080;11.960;2022-09-12T13:31:48;94833.47;;;21.21;61.02
23363;BME280;11853;48.080;11.960;2022-09-12T13:34:21;94829.31;;;21.18;61.47
23363;BME280;11853;48.080;11.960;2022-09-12T13:39:49;94823.13;;;21.18;63.81
23363;BME280;11853;48.080;11.960;2022-09-12T13:47:35;94819.41;;;21.12;60.54
23363;BME280;11853;48.080;11.960;2022-09-12T13:50:05;94818.97;;;21.15;59.49
23363;BME280;11853;48.080;11.960;2022-09-12T13:52:34;94814.22;;;21.10;61.80
23363;BME280;11853;48.080;11.960;2022-09-12T13:55:05;94808.81;;;21.10;61.56
23363;BME280;11853;48.080;11.960;2022-09-12T13:57:37;94810.66;;;21.17;62.10
23363;BME280;11853;48.080;11.960;2022-09-12T14:00:15;94809.63;;;21.18;60.59
23363;BME280;11853;48.080;11.960;2022-09-12T14:02:46;94793.91;;;21.08;59.76
23363;BME280;11853;48.080;11.960;2022-09-12T14:05:21;94801.34;;;21.12;60.25
23363;BME280;11853;48.080;11.960;2022-09-12T14:10:30;94794.72;;;21.08;59.12
23363;BME280;11853;48.080;11.960;2022-09-12T14:12:58;94795.41;;;21.04;60.87
23363;BME280;11853;48.080;11.960;2022-09-12T14:15:29;94794.41;;;21.23;62.00
23363;BME280;11853;48.080;11.960;2022-09-12T14:17:58;94791.31;;;21.20;61.68
23363;BME280;11853;48.080;11.960;2022-09-12T14:20:35;94796.94;;;21.18;62.32
23363;BME280;11853;48.080;11.960;2022-09-12T14:25:55;94786.50;;;20.97;64.48
23363;BME280;11853;48.080;11.960;2022-09-12T14:28:23;94780.09;;;20.98;66.05
23363;BME280;11853;48.080;11.960;2022-09-12T14:31:08;94779.66;;;21.01;66.60
23363;BME280;11853;48.080;11.960;2022-09-12T14:38:52;94775.00;;;21.08;62.70
23363;BME280;11853;48.080;11.960;2022-09-12T14:41:40;94778.69;;;21.13;63.23
23363;BME280;11853;48.080;11.960;2022-09-12T14:44:13;94778.06;;;21.18;65.22
23363;BME280;11853;48.080;11.960;2022-09-12T14:46:41;94766.03;;;21.14;63.86
23363;BME280;11853;48.080;11.960;2022-09-12T14:49:15;94776.34;;;21.24;62.92
23363;BME280;11853;48.080;11.960;2022-09-12T14:51:56;94760.81;;;21.19;61.58
23363;BME280;11853;48.080;11.960;2022-09-12T14:57:02;94772.94;;;21.10;62.66
23363;BME280;11853;48.080;11.960;2022-09-12T15:04:48;94763.56;;;20.87;60.70
23363;BME280;11853;48.080;11.960;2022-09-12T15:09:49;94765.25;;;20.82;63.04
23363;BME280;11853;48.080;11.960;2022-09-12T15:12:15;94766.88;;;20.89;63.22
23363;BME280;11853;48.080;11.960;2022-09-12T15:14:41;94772.13;;;20.78;63.70
23363;BME280;11853;48.080;11.960;2022-09-12T15:17:06;94763.47;;;20.69;63.15
23363;BME280;11853;48.080;11.960;2022-09-12T15:19:32;94764.94;;;20.65;63.58
23363;BME280;11853;48.080;11.960;2022-09-12T15:21:58;94763.06;;;20.65;64.21
23363;BME280;11853;48.080;11.960;2022-09-12T15:24:23;94756.25;;;20.63;64.40
23363;BME280;11853;48.080;11.960;2022-09-12T15:26:49;94753.78;;;20.61;65.34
23363;BME280;11853;48.080;11.960;2022-09-12T15:29:15;94764.94;;;20.65;65.27
23363;BME280;11853;48.080;11.960;2022-09-12T15:31:45;94754.16;;;20.65;64.40
23363;BME280;11853;48.080;11.960;2022-09-12T15:34:11;94758.50;;;20.66;64.79
23363;BME280;11853;48.080;11.960;2022-09-12T15:36:37;94758.50;;;20.66;64.82